sensor_id;sensor_type;location;lat;lon;timestamp;temperature;humidity
336;DHT22;156;48.738;9.228;2023-04-06T15:01:43;16.30;1.00
336;DHT22;156;48.738;9.228;2023-04-06T15:04:16;16.00;1.00
336;DHT22;156;48.738;9.228;2023-04-06T15:06:43;15.50;1.00
336;DHT22;156;48.738;9.228;2023-04-06T15:09:10;15.40;1.00
336;DHT22;156;48.738;9.228;2023-04-06T15:11:37;15.50;1.00
336;DHT22;156;48.738;9.228;2023-04-06T15:14:06;15.50;1.00
336;DHT22;156;48.738;9.228;2023-04-06T15:16:33;15.50;1.00
336;DHT22;156;48.738;9.228;2023-04-06T15:19:01;15.10;1.00
336;DHT22;156;48.738;9.228;2023-04-06T15:21:28;14.90;1.00
336;DHT22;156;48.738;9.228;2023-04-06T15:23:55;14.80;1.00
336;DHT22;156;48.738;9.228;2023-04-06T15:26:22;15.10;1.00
336;DHT22;156;48.738;9.228;2023-04-06T15:28:49;15.10;1.00
336;DHT22;156;48.738;9.228;2023-04-06T15:31:17;15.10;1.00
336;DHT22;156;48.738;9.228;2023-04-06T15:33:45;15.10;1.00
336;DHT22;156;48.738;9.228;2023-04-06T15:36:22;15.10;1.00
336;DHT22;156;48.738;9.228;2023-04-06T15:38:49;15.00;1.00
336;DHT22;156;48.738;9.228;2023-04-06T15:41:16;15.00;1.00
336;DHT22;156;48.738;9.228;2023-04-06T15:43:43;14.90;1.00
336;DHT22;156;48.738;9.228;2023-04-06T15:46:10;15.00;1.00
336;DHT22;156;48.738;9.228;2023-04-06T15:48:37;15.10;1.00
336;DHT22;156;48.738;9.228;2023-04-06T15:51:04;15.10;1.00
336;DHT22;156;48.738;9.228;2023-04-06T15:53:33;15.10;1.00
336;DHT22;156;48.738;9.228;2023-04-06T15:56:00;15.20;1.00
336;DHT22;156;48.738;9.228;2023-04-06T15:58:28;15.30;1.00
336;DHT22;156;48.738;9.228;2023-04-06T16:00:55;15.20;1.00
336;DHT22;156;48.738;9.228;2023-04-06T16:03:22;14.90;1.00
336;DHT22;156;48.738;9.228;2023-04-06T16:05:49;14.30;1.00
336;DHT22;156;48.738;9.228;2023-04-06T16:08:16;13.90;1.00
336;DHT22;156;48.738;9.228;2023-04-06T16:10:45;13.80;1.00
336;DHT22;156;48.738;9.228;2023-04-06T16:13:12;13.60;1.00
336;DHT22;156;48.738;9.228;2023-04-06T16:15:39;13.50;1.00
336;DHT22;156;48.738;9.228;2023-04-06T16:18:06;13.30;1.00
336;DHT22;156;48.738;9.228;2023-04-06T16:20:34;13.10;1.00
336;DHT22;156;48.738;9.228;2023-04-06T16:23:01;13.00;1.00
336;DHT22;156;48.738;9.228;2023-04-06T16:25:28;12.80;1.00
336;DHT22;156;48.738;9.228;2023-04-06T16:27:57;12.60;1.00
336;DHT22;156;48.738;9.228;2023-04-06T16:30:24;12.50;1.00
336;DHT22;156;48.738;9.228;2023-04-06T16:32:51;12.40;1.00
336;DHT22;156;48.738;9.228;2023-04-06T16:35:18;12.30;1.00
336;DHT22;156;48.738;9.228;2023-04-06T16:37:46;12.20;1.00
336;DHT22;156;48.738;9.228;2023-04-06T16:40:13;12.00;1.00
336;DHT22;156;48.738;9.228;2023-04-06T16:42:41;11.90;1.00
336;DHT22;156;48.738;9.228;2023-04-06T16:45:11;11.80;1.00
336;DHT22;156;48.738;9.228;2023-04-06T16:47:39;11.90;1.00
336;DHT22;156;48.738;9.228;2023-04-06T16:50:07;11.90;1.00
336;DHT22;156;48.738;9.228;2023-04-06T16:52:34;11.90;1.00
336;DHT22;156;48.738;9.228;2023-04-06T16:55:01;11.90;1.00
336;DHT22;156;48.738;9.228;2023-04-06T16:57:28;11.80;1.00
336;DHT22;156;48.738;9.228;2023-04-06T16:59:55;11.70;1.00
336;DHT22;156;48.738;9.228;2023-04-06T17:02:24;11.70;1.00
336;DHT22;156;48.738;9.228;2023-04-06T17:04:51;11.50;1.00
336;DHT22;156;48.738;9.228;2023-04-06T17:07:17;11.50;1.00
336;DHT22;156;48.738;9.228;2023-04-06T17:09:46;11.50;1.00
336;DHT22;156;48.738;9.228;2023-04-06T17:12:13;11.30;1.00
336;DHT22;156;48.738;9.228;2023-04-06T17:14:40;11.30;1.00
336;DHT22;156;48.738;9.228;2023-04-06T17:17:07;11.20;1.00
336;DHT22;156;48.738;9.228;2023-04-06T17:19:35;11.20;1.00
336;DHT22;156;48.738;9.228;2023-04-06T17:22:02;11.10;1.00
336;DHT22;156;48.738;9.228;2023-04-06T17:24:29;11.00;1.00
336;DHT22;156;48.738;9.228;2023-04-06T17:26:56;10.90;1.00
336;DHT22;156;48.738;9.228;2023-04-06T17:29:23;10.90;1.00
336;DHT22;156;48.738;9.228;2023-04-06T17:31:50;10.80;1.00
336;DHT22;156;48.738;9.228;2023-04-06T17:34:17;10.70;1.00
336;DHT22;156;48.738;9.228;2023-04-06T17:36:45;10.60;1.00
336;DHT22;156;48.738;9.228;2023-04-06T17:39:12;10.50;1.00
336;DHT22;156;48.738;9.228;2023-04-06T17:41:39;10.50;1.00
336;DHT22;156;48.738;9.228;2023-04-06T17:44:06;10.40;1.00
336;DHT22;156;48.738;9.228;2023-04-06T17:46:33;10.40;1.00
336;DHT22;156;48.738;9.228;2023-04-06T17:49:00;10.30;1.00
336;DHT22;156;48.738;9.228;2023-04-06T17:51:27;10.30;1.00
336;DHT22;156;48.738;9.228;2023-04-06T17:53:55;10.20;1.00
336;DHT22;156;48.738;9.228;2023-04-06T17:56:22;10.20;1.00
336;DHT22;156;48.738;9.228;2023-04-06T17:58:49;10.20;1.00
336;DHT22;156;48.738;9.228;2023-04-06T18:01:16;10.20;1.00
336;DHT22;156;48.738;9.228;2023-04-06T18:03:43;10.10;1.00
336;DHT22;156;48.738;9.228;2023-04-06T18:06:11;10.10;1.00
336;DHT22;156;48.738;9.228;2023-04-06T18:08:39;10.10;1.00
336;DHT22;156;48.738;9.228;2023-04-06T18:11:13;10.10;1.00
336;DHT22;156;48.738;9.228;2023-04-06T18:13:41;10.10;1.00
336;DHT22;156;48.738;9.228;2023-04-06T18:16:08;10.10;1.00
336;DHT22;156;48.738;9.228;2023-04-06T18:18:35;10.10;1.00
336;DHT22;156;48.738;9.228;2023-04-06T18:21:03;10.10;1.00
336;DHT22;156;48.738;9.228;2023-04-06T18:23:31;10.10;1.00
336;DHT22;156;48.738;9.228;2023-04-06T18:25:59;10.00;1.00
336;DHT22;156;48.738;9.228;2023-04-06T18:28:27;10.00;1.00
336;DHT22;156;48.738;9.228;2023-04-06T18:30:56;10.00;1.00
336;DHT22;156;48.738;9.228;2023-04-06T18:33:23;9.90;1.00
336;DHT22;156;48.738;9.228;2023-04-06T18:35:51;9.90;1.00
336;DHT22;156;48.738;9.228;2023-04-06T18:38:20;10.00;1.00
336;DHT22;156;48.738;9.228;2023-04-06T18:40:47;9.90;1.00
336;DHT22;156;48.738;9.228;2023-04-06T18:43:14;10.00;1.00
336;DHT22;156;48.738;9.228;2023-04-06T18:45:42;9.90;1.00
336;DHT22;156;48.738;9.228;2023-04-06T18:48:09;10.00;1.00
336;DHT22;156;48.738;9.228;2023-04-06T18:50:38;9.90;1.00
336;DHT22;156;48.738;9.228;2023-04-06T18:53:05;10.00;1.00
336;DHT22;156;48.738;9.228;2023-04-06T18:55:33;9.90;1.00
336;DHT22;156;48.738;9.228;2023-04-06T18:58:01;10.00;1.00
336;DHT22;156;48.738;9.228;2023-04-06T19:00:28;10.00;1.00
336;DHT22;156;48.738;9.228;2023-04-06T19:02:56;9.90;1.00
336;DHT22;156;48.738;9.228;2023-04-06T19:05:23;9.90;1.00
336;DHT22;156;48.738;9.228;2023-04-06T19:07:50;9.90;1.00
336;DHT22;156;48.738;9.228;2023-04-06T19:10:17;10.00;1.00
336;DHT22;156;48.738;9.228;2023-04-06T19:12:47;10.00;1.00
336;DHT22;156;48.738;9.228;2023-04-06T19:15:14;10.00;1.00
336;DHT22;156;48.738;9.228;2023-04-06T19:17:41;10.10;1.00
336;DHT22;156;48.738;9.228;2023-04-06T19:20:10;10.00;1.00
336;DHT22;156;48.738;9.228;2023-04-06T19:22:37;10.00;1.00
336;DHT22;156;48.738;9.228;2023-04-06T19:25:05;9.90;1.00
336;DHT22;156;48.738;9.228;2023-04-06T19:27:33;9.90;1.00
336;DHT22;156;48.738;9.228;2023-04-06T19:30:00;10.00;1.00
336;DHT22;156;48.738;9.228;2023-04-06T19:32:27;10.00;1.00
336;DHT22;156;48.738;9.228;2023-04-06T19:34:54;10.00;1.00
336;DHT22;156;48.738;9.228;2023-04-06T19:37:22;10.00;1.00
336;DHT22;156;48.738;9.228;2023-04-06T19:39:50;10.00;1.00
336;DHT22;156;48.738;9.228;2023-04-06T19:42:16;9.90;1.00
336;DHT22;156;48.738;9.228;2023-04-06T19:44:46;9.90;1.00
336;DHT22;156;48.738;9.228;2023-04-06T19:47:13;9.80;1.00
336;DHT22;156;48.738;9.228;2023-04-06T19:49:40;9.80;1.00
336;DHT22;156;48.738;9.228;2023-04-06T19:52:07;9.80;1.00
336;DHT22;156;48.738;9.228;2023-04-06T19:54:37;9.80;1.00
336;DHT22;156;48.738;9.228;2023-04-06T19:57:05;9.80;1.00
336;DHT22;156;48.738;9.228;2023-04-06T19:59:32;9.60;1.00
336;DHT22;156;48.738;9.228;2023-04-06T20:01:59;9.60;1.00
336;DHT22;156;48.738;9.228;2023-04-06T20:04:26;9.60;1.00
336;DHT22;156;48.738;9.228;2023-04-06T20:06:53;9.60;1.00
336;DHT22;156;48.738;9.228;2023-04-06T20:09:20;9.50;1.00
336;DHT22;156;48.738;9.228;2023-04-06T20:11:49;9.40;1.00
336;DHT22;156;48.738;9.228;2023-04-06T20:14:16;9.30;1.00
336;DHT22;156;48.738;9.228;2023-04-06T20:16:43;9.20;1.00
336;DHT22;156;48.738;9.228;2023-04-06T20:19:10;9.20;1.00
336;DHT22;156;48.738;9.228;2023-04-06T20:21:37;9.10;1.00
336;DHT22;156;48.738;9.228;2023-04-06T20:24:04;9.10;1.00
336;DHT22;156;48.738;9.228;2023-04-06T20:26:31;9.20;1.00
336;DHT22;156;48.738;9.228;2023-04-06T20:28:59;9.00;1.00
336;DHT22;156;48.738;9.228;2023-04-06T20:31:27;9.00;1.00
336;DHT22;156;48.738;9.228;2023-04-06T20:33:54;9.00;1.00
336;DHT22;156;48.738;9.228;2023-04-06T20:36:21;8.80;1.00
336;DHT22;156;48.738;9.228;2023-04-06T20:38:48;8.80;1.00
336;DHT22;156;48.738;9.228;2023-04-06T20:41:15;8.70;1.00
336;DHT22;156;48.738;9.228;2023-04-06T20:43:42;8.50;1.00
336;DHT22;156;48.738;9.228;2023-04-06T20:46:15;8.40;1.00
336;DHT22;156;48.738;9.228;2023-04-06T20:48:42;8.40;1.00
336;DHT22;156;48.738;9.228;2023-04-06T20:51:17;8.40;1.00
336;DHT22;156;48.738;9.228;2023-04-06T20:53:44;8.40;1.00
336;DHT22;156;48.738;9.228;2023-04-06T20:56:11;8.40;1.00
336;DHT22;156;48.738;9.228;2023-04-06T20:58:39;8.40;1.00
336;DHT22;156;48.738;9.228;2023-04-06T21:01:11;8.50;1.00
336;DHT22;156;48.738;9.228;2023-04-06T21:03:40;8.20;1.00
336;DHT22;156;48.738;9.228;2023-04-06T21:06:08;8.10;1.00
336;DHT22;156;48.738;9.228;2023-04-06T21:08:35;8.10;1.00
336;DHT22;156;48.738;9.228;2023-04-06T21:11:03;7.90;1.00
336;DHT22;156;48.738;9.228;2023-04-06T21:13:30;8.00;1.00
336;DHT22;156;48.738;9.228;2023-04-06T21:15:58;8.10;1.00
336;DHT22;156;48.738;9.228;2023-04-06T21:18:25;8.00;1.00
336;DHT22;156;48.738;9.228;2023-04-06T21:20:53;8.00;1.00
336;DHT22;156;48.738;9.228;2023-04-06T21:23:20;7.90;1.00
336;DHT22;156;48.738;9.228;2023-04-06T21:25:47;7.70;1.00
336;DHT22;156;48.738;9.228;2023-04-06T21:28:16;7.60;1.00
336;DHT22;156;48.738;9.228;2023-04-06T21:30:43;7.60;1.00
336;DHT22;156;48.738;9.228;2023-04-06T21:33:10;7.60;1.00
336;DHT22;156;48.738;9.228;2023-04-06T21:35:37;7.40;1.00
336;DHT22;156;48.738;9.228;2023-04-06T21:38:06;7.30;1.00
336;DHT22;156;48.738;9.228;2023-04-06T21:40:33;7.30;1.00
336;DHT22;156;48.738;9.228;2023-04-06T21:43:01;7.20;1.00
336;DHT22;156;48.738;9.228;2023-04-06T21:45:27;7.00;1.00
336;DHT22;156;48.738;9.228;2023-04-06T21:47:55;6.90;1.00
336;DHT22;156;48.738;9.228;2023-04-06T21:50:22;6.80;1.00
336;DHT22;156;48.738;9.228;2023-04-06T21:52:49;6.80;1.00
336;DHT22;156;48.738;9.228;2023-04-06T21:55:18;6.80;1.00
336;DHT22;156;48.738;9.228;2023-04-06T21:57:45;6.90;1.00
336;DHT22;156;48.738;9.228;2023-04-06T22:00:13;7.00;1.00
336;DHT22;156;48.738;9.228;2023-04-06T22:02:40;6.90;1.00
336;DHT22;156;48.738;9.228;2023-04-06T22:05:09;6.90;1.00
336;DHT22;156;48.738;9.228;2023-04-06T22:07:36;6.60;1.00
336;DHT22;156;48.738;9.228;2023-04-06T22:10:03;6.50;1.00
336;DHT22;156;48.738;9.228;2023-04-06T22:12:31;6.50;1.00
336;DHT22;156;48.738;9.228;2023-04-06T22:14:59;6.40;1.00
336;DHT22;156;48.738;9.228;2023-04-06T22:17:25;6.50;1.00
336;DHT22;156;48.738;9.228;2023-04-06T22:19:52;6.60;1.00
336;DHT22;156;48.738;9.228;2023-04-06T22:22:19;6.60;1.00
336;DHT22;156;48.738;9.228;2023-04-06T22:24:47;6.70;1.00
336;DHT22;156;48.738;9.228;2023-04-06T22:27:14;6.70;1.00
336;DHT22;156;48.738;9.228;2023-04-06T22:29:42;6.70;1.00
336;DHT22;156;48.738;9.228;2023-04-06T22:32:09;6.60;1.00
336;DHT22;156;48.738;9.228;2023-04-06T22:34:36;6.50;1.00
336;DHT22;156;48.738;9.228;2023-04-06T22:37:03;6.50;1.00
336;DHT22;156;48.738;9.228;2023-04-06T22:39:29;6.40;1.00
336;DHT22;156;48.738;9.228;2023-04-06T22:41:56;6.40;1.00
336;DHT22;156;48.738;9.228;2023-04-06T22:44:23;6.40;1.00
336;DHT22;156;48.738;9.228;2023-04-06T22:46:52;6.40;1.00
336;DHT22;156;48.738;9.228;2023-04-06T22:49:19;6.30;1.00
336;DHT22;156;48.738;9.228;2023-04-06T22:51:46;6.40;1.00
336;DHT22;156;48.738;9.228;2023-04-06T22:54:13;6.40;1.00
336;DHT22;156;48.738;9.228;2023-04-06T22:56:40;6.50;1.00
336;DHT22;156;48.738;9.228;2023-04-06T22:59:06;6.60;1.00
336;DHT22;156;48.738;9.228;2023-04-06T23:01:33;6.60;1.00
336;DHT22;156;48.738;9.228;2023-04-06T23:04:02;6.50;1.00
336;DHT22;156;48.738;9.228;2023-04-06T23:06:29;6.40;1.00
336;DHT22;156;48.738;9.228;2023-04-06T23:08:56;6.40;1.00
336;DHT22;156;48.738;9.228;2023-04-06T23:11:22;6.40;1.00
336;DHT22;156;48.738;9.228;2023-04-06T23:13:49;6.40;1.00
336;DHT22;156;48.738;9.228;2023-04-06T23:16:16;6.40;1.00
336;DHT22;156;48.738;9.228;2023-04-06T23:18:43;6.40;1.00
336;DHT22;156;48.738;9.228;2023-04-06T23:21:11;6.40;1.00
336;DHT22;156;48.738;9.228;2023-04-06T23:23:38;6.40;1.00
336;DHT22;156;48.738;9.228;2023-04-06T23:26:05;6.40;1.00
336;DHT22;156;48.738;9.228;2023-04-06T23:28:32;6.50;1.00
336;DHT22;156;48.738;9.228;2023-04-06T23:30:59;6.40;3.60
336;DHT22;156;48.738;9.228;2023-04-06T23:33:26;6.40;7.70
336;DHT22;156;48.738;9.228;2023-04-06T23:35:53;6.40;11.40
336;DHT22;156;48.738;9.228;2023-04-06T23:38:22;6.30;12.10
336;DHT22;156;48.738;9.228;2023-04-06T23:40:49;6.30;11.90
336;DHT22;156;48.738;9.228;2023-04-06T23:43:16;6.20;12.90
336;DHT22;156;48.738;9.228;2023-04-06T23:45:43;6.20;15.70
336;DHT22;156;48.738;9.228;2023-04-06T23:48:10;6.30;16.50
336;DHT22;156;48.738;9.228;2023-04-06T23:50:37;6.20;16.30
336;DHT22;156;48.738;9.228;2023-04-06T23:53:04;6.20;19.90
336;DHT22;156;48.738;9.228;2023-04-06T23:55:33;6.30;19.20
336;DHT22;156;48.738;9.228;2023-04-06T23:58:00;6.30;16.80
